Time;durP1;ratioP1;P1;durP2;ratioP2;P2;SDS_P1;SDS_P2;PMS_P1;PMS_P2;Temp;Humidity;BMP_temperature;BMP_pressure;BME280_temperature;BME280_humidity;BME280_pressure;Samples;Min_cycle;Max_cycle;Signal;HPM_P1;HPM_P2
2022/09/20 00:01:15;;;;;;;2.20;0.68;;;11.40;98.00;;;;;;5033383;28;20073;-70
2022/09/20 00:03:44;;;;;;;0.93;0.60;;;11.40;98.10;;;;;;5042628;28;20116;-69
2022/09/20 00:06:15;;;;;;;2.00;0.73;;;11.40;98.00;;;;;;5041911;28;20025;-69
2022/09/20 00:08:41;;;;;;;1.15;0.63;;;11.30;98.00;;;;;;5040109;28;20033;-68
2022/09/20 00:11:14;;;;;;;0.85;0.60;;;11.30;98.10;;;;;;5037131;28;20436;-68
2022/09/20 00:13:41;;;;;;;1.70;0.60;;;11.30;98.00;;;;;;5036309;28;20183;-69
2022/09/20 00:16:12;;;;;;;4.22;0.70;;;11.30;98.00;;;;;;5037661;28;20786;-69
2022/09/20 00:18:38;;;;;;;1.50;0.52;;;11.30;98.10;;;;;;5035410;28;20029;-69
2022/09/20 00:21:04;;;;;;;3.40;0.68;;;11.30;98.10;;;;;;5035446;28;20716;-69
2022/09/20 00:23:30;;;;;;;1.33;0.70;;;11.30;98.10;;;;;;5041740;28;20033;-70
2022/09/20 00:26:00;;;;;;;1.50;0.60;;;11.40;98.10;;;;;;5040039;28;20164;-69
2022/09/20 00:28:27;;;;;;;0.43;0.40;;;11.40;98.10;;;;;;5037428;28;20025;-68
2022/09/20 00:30:54;;;;;;;0.40;0.40;;;11.40;98.10;;;;;;5037044;28;20025;-69
2022/09/20 00:33:22;;;;;;;0.50;0.40;;;11.40;98.20;;;;;;5036970;28;20036;-69
2022/09/20 00:35:48;;;;;;;3.10;0.93;;;11.40;98.10;;;;;;5037856;28;20108;-69
2022/09/20 00:38:14;;;;;;;1.88;0.60;;;11.40;98.20;;;;;;5033567;28;20044;-69
2022/09/20 00:40:42;;;;;;;2.88;0.63;;;11.50;98.10;;;;;;5038198;28;20052;-69
2022/09/20 00:43:16;;;;;;;1.23;0.45;;;11.50;98.10;;;;;;5039943;28;20029;-69
2022/09/20 00:45:45;;;;;;;0.70;0.47;;;11.50;98.60;;;;;;5040439;28;20021;-69
2022/09/20 00:48:29;;;;;;;0.50;0.50;;;11.50;98.40;;;;;;5037454;28;20047;-69
2022/09/20 00:51:00;;;;;;;1.10;0.70;;;11.50;98.40;;;;;;5036096;28;20043;-69
2022/09/20 00:53:31;;;;;;;0.60;0.52;;;11.60;98.50;;;;;;5035342;28;20036;-69
2022/09/20 00:56:08;;;;;;;2.53;0.47;;;11.60;98.50;;;;;;5032569;28;20082;-69
2022/09/20 00:58:40;;;;;;;3.08;0.65;;;11.60;98.60;;;;;;5035569;28;20048;-70
2022/09/20 01:01:06;;;;;;;1.38;0.55;;;11.60;98.50;;;;;;5040916;28;20251;-69
2022/09/20 01:03:34;;;;;;;1.02;0.60;;;11.70;98.50;;;;;;5040605;28;20031;-69
2022/09/20 01:06:08;;;;;;;0.93;0.50;;;11.70;98.50;;;;;;5036073;28;20123;-69
2022/09/20 01:08:35;;;;;;;1.17;0.50;;;11.80;98.50;;;;;;5037288;28;20024;-68
2022/09/20 01:11:01;;;;;;;2.85;0.57;;;11.70;98.40;;;;;;5033750;28;20904;-69
2022/09/20 01:13:27;;;;;;;0.90;0.40;;;11.80;98.40;;;;;;5035969;28;20083;-69
2022/09/20 01:15:55;;;;;;;0.73;0.57;;;11.80;98.40;;;;;;5035670;28;20466;-69
2022/09/20 01:18:22;;;;;;;1.92;0.75;;;11.80;98.30;;;;;;5037149;28;20048;-69
2022/09/20 01:20:48;;;;;;;1.20;1.00;;;11.80;98.30;;;;;;5040762;28;20409;-69
2022/09/20 01:23:23;;;;;;;1.30;0.60;;;11.80;98.40;;;;;;5037591;28;20036;-69
2022/09/20 01:26:08;;;;;;;0.82;0.70;;;11.80;98.30;;;;;;5036735;28;20021;-69
2022/09/20 01:28:35;;;;;;;1.27;0.77;;;11.80;98.40;;;;;;5040058;28;20025;-69
2022/09/20 01:31:10;;;;;;;0.82;0.60;;;11.80;98.50;;;;;;5036858;28;20580;-69
2022/09/20 01:34:00;;;;;;;1.48;0.60;;;11.80;98.40;;;;;;5038147;28;20860;-69
2022/09/20 01:36:37;;;;;;;1.27;0.77;;;11.80;98.40;;;;;;5040942;28;20111;-69
2022/09/20 01:39:09;;;;;;;1.88;0.47;;;11.80;98.50;;;;;;5041716;28;20056;-69
2022/09/20 01:41:44;;;;;;;1.63;0.65;;;11.90;98.50;;;;;;5043848;28;20485;-69
2022/09/20 01:44:16;;;;;;;1.13;1.05;;;11.90;98.50;;;;;;5039092;28;20204;-69
2022/09/20 01:46:43;;;;;;;0.52;0.52;;;11.90;98.40;;;;;;5039539;28;20029;-69
2022/09/20 01:49:27;;;;;;;4.15;0.82;;;11.90;98.40;;;;;;5040756;28;20068;-69
2022/09/20 01:52:26;;;;;;;2.10;0.75;;;11.90;98.70;;;;;;5035907;28;20556;-69
2022/09/20 01:55:29;;;;;;;2.22;0.57;;;11.90;98.30;;;;;;5040560;28;20033;-69
2022/09/20 01:58:07;;;;;;;0.47;0.40;;;11.90;98.40;;;;;;5040851;28;20499;-69
2022/09/20 02:00:57;;;;;;;0.63;0.63;;;11.80;98.40;;;;;;5040845;28;20036;-69
2022/09/20 02:03:45;;;;;;;1.20;0.50;;;11.80;98.50;;;;;;5042217;28;20029;-69
2022/09/20 02:06:22;;;;;;;1.55;0.60;;;11.80;98.40;;;;;;5037888;28;20029;-69
2022/09/20 02:09:06;;;;;;;1.05;0.80;;;11.80;98.40;;;;;;5035299;28;20036;-69
2022/09/20 02:11:35;;;;;;;4.60;0.73;;;11.80;98.40;;;;;;5036891;28;20110;-69
2022/09/20 02:14:23;;;;;;;0.40;0.40;;;11.80;98.40;;;;;;5037195;28;20759;-68
2022/09/20 02:16:55;;;;;;;0.80;0.70;;;11.80;98.50;;;;;;5044287;28;20029;-69
2022/09/20 02:19:24;;;;;;;1.00;0.60;;;11.80;98.50;;;;;;5042185;28;20091;-69
2022/09/20 02:22:10;;;;;;;3.05;0.68;;;11.80;98.50;;;;;;5040621;28;20111;-69
2022/09/20 02:25:01;;;;;;;1.77;0.95;;;11.90;98.60;;;;;;5038153;28;20421;-70
2022/09/20 02:27:46;;;;;;;0.88;0.70;;;11.90;98.60;;;;;;5026814;28;20401;-69
2022/09/20 02:30:53;;;;;;;1.27;0.60;;;11.90;98.60;;;;;;5035756;28;20127;-69
2022/09/20 02:33:57;;;;;;;1.58;0.70;;;11.90;98.50;;;;;;5038659;28;20041;-69
2022/09/20 02:36:38;;;;;;;1.45;0.60;;;12.00;98.50;;;;;;5051635;28;20059;-69
2022/09/20 02:39:11;;;;;;;1.17;0.55;;;12.00;98.50;;;;;;5046012;28;20578;-69
2022/09/20 02:41:55;;;;;;;2.70;0.70;;;12.00;98.40;;;;;;5041854;28;20047;-69
2022/09/20 02:44:37;;;;;;;5.40;1.17;;;12.00;98.50;;;;;;5038303;28;20068;-69
2022/09/20 02:47:19;;;;;;;1.60;0.50;;;12.00;98.40;;;;;;5035941;28;20026;-69
2022/09/20 02:50:06;;;;;;;1.40;0.80;;;12.00;98.40;;;;;;5036842;28;20029;-69
2022/09/20 02:52:55;;;;;;;0.82;0.68;;;12.10;98.40;;;;;;5040975;28;20048;-69
2022/09/20 02:55:40;;;;;;;2.78;0.70;;;12.10;98.50;;;;;;5042092;28;20049;-69
2022/09/20 02:58:21;;;;;;;3.65;0.85;;;12.10;98.40;;;;;;5040804;28;20120;-69
2022/09/20 03:01:25;;;;;;;3.63;0.93;;;12.10;98.50;;;;;;5039391;28;20114;-69
2022/09/20 03:04:20;;;;;;;0.95;0.80;;;12.10;98.50;;;;;;5036743;28;20045;-69
2022/09/20 03:07:05;;;;;;;2.08;1.15;;;12.10;98.60;;;;;;5037209;28;20056;-70
2022/09/20 03:09:50;;;;;;;1.52;0.95;;;12.20;98.60;;;;;;5036015;28;20036;-69
2022/09/20 03:12:47;;;;;;;2.67;1.10;;;12.20;98.60;;;;;;5041298;28;20741;-69
2022/09/20 03:15:26;;;;;;;3.95;0.80;;;12.20;98.50;;;;;;5041456;28;20488;-69
2022/09/20 03:18:01;;;;;;;1.50;0.88;;;12.20;98.50;;;;;;5038326;28;20032;-69
2022/09/20 03:20:44;;;;;;;2.20;1.00;;;12.20;98.40;;;;;;5036919;28;20037;-69
2022/09/20 03:23:18;;;;;;;3.28;1.30;;;12.20;98.40;;;;;;5035233;28;20033;-69
2022/09/20 03:25:49;;;;;;;3.22;1.17;;;12.20;98.40;;;;;;5035244;28;20025;-69
2022/09/20 03:28:59;;;;;;;1.02;0.70;;;12.20;98.50;;;;;;5035165;28;20417;-69
2022/09/20 03:31:40;;;;;;;4.45;0.95;;;12.20;98.50;;;;;;5039289;28;20037;-69
2022/09/20 03:34:35;;;;;;;1.92;0.98;;;12.20;98.40;;;;;;5039783;28;20132;-69
2022/09/20 03:37:12;;;;;;;2.83;1.10;;;12.20;98.40;;;;;;5038472;28;20044;-69
2022/09/20 03:40:16;;;;;;;3.13;1.33;;;12.30;98.30;;;;;;5039917;28;20029;-69
2022/09/20 03:42:51;;;;;;;4.82;1.23;;;12.30;98.30;;;;;;5036796;28;20477;-70
2022/09/20 03:45:47;;;;;;;3.50;1.15;;;12.30;98.20;;;;;;5035581;28;20083;-69
2022/09/20 03:48:47;;;;;;;2.80;1.30;;;12.20;98.20;;;;;;5034222;28;20499;-68
2022/09/20 03:51:42;;;;;;;6.35;1.40;;;12.20;98.30;;;;;;5040589;28;20110;-69
2022/09/20 03:54:37;;;;;;;4.95;1.30;;;12.20;98.30;;;;;;5040949;28;20618;-69
2022/09/20 03:57:26;;;;;;;4.03;1.17;;;12.30;98.50;;;;;;5040122;28;20393;-69
2022/09/20 04:00:19;;;;;;;3.35;1.20;;;12.30;98.00;;;;;;5037392;28;20040;-69
2022/09/20 04:03:04;;;;;;;6.45;2.00;;;12.20;98.00;;;;;;5036102;28;20037;-69
2022/09/20 04:05:43;;;;;;;2.63;1.35;;;12.20;98.30;;;;;;5035897;28;20033;-68
2022/09/20 04:08:54;;;;;;;2.38;1.15;;;12.20;98.10;;;;;;5040759;28;20033;-68
2022/09/20 04:11:53;;;;;;;1.23;1.13;;;12.20;98.10;;;;;;5037764;28;20140;-69
2022/09/20 04:14:40;;;;;;;3.92;1.20;;;12.10;98.20;;;;;;5039034;28;20042;-69
2022/09/20 04:17:54;;;;;;;3.30;0.93;;;12.10;98.20;;;;;;5038170;28;20037;-69
2022/09/20 04:20:43;;;;;;;2.15;1.13;;;12.10;98.20;;;;;;5045977;28;20702;-69
2022/09/20 04:23:39;;;;;;;3.42;1.20;;;12.10;98.30;;;;;;5043630;28;20523;-69
2022/09/20 04:26:05;;;;;;;2.28;1.10;;;12.20;98.30;;;;;;5039651;28;20045;-69
2022/09/20 04:29:01;;;;;;;3.05;1.35;;;12.20;98.60;;;;;;5042078;28;20029;-69
2022/09/20 04:31:36;;;;;;;3.33;0.90;;;12.20;98.30;;;;;;5037128;28;20049;-69
2022/09/20 04:34:09;;;;;;;2.28;1.10;;;12.20;98.40;;;;;;5036166;28;20040;-70
2022/09/20 04:37:01;;;;;;;2.58;1.10;;;12.20;98.40;;;;;;5038039;28;20033;-69
2022/09/20 04:39:31;;;;;;;1.70;1.38;;;12.20;98.40;;;;;;5032182;28;20125;-69
2022/09/20 04:42:21;;;;;;;3.08;1.02;;;12.20;98.30;;;;;;5032529;28;20029;-69
2022/09/20 04:45:07;;;;;;;1.00;0.90;;;12.20;98.20;;;;;;5037549;28;20103;-68
2022/09/20 04:48:03;;;;;;;2.63;1.33;;;12.20;98.20;;;;;;5039033;28;20049;-69
2022/09/20 04:50:52;;;;;;;4.80;0.90;;;12.20;98.10;;;;;;5033531;28;20111;-69
2022/09/20 04:53:33;;;;;;;2.35;1.30;;;12.10;98.10;;;;;;5037593;28;20151;-69
2022/09/20 04:56:21;;;;;;;0.70;0.70;;;12.10;98.20;;;;;;5035558;28;20032;-69
2022/09/20 04:58:47;;;;;;;4.13;0.90;;;12.10;98.20;;;;;;5035544;28;20048;-70
2022/09/20 05:01:25;;;;;;;2.03;1.05;;;12.10;98.10;;;;;;5032997;28;20030;-69
2022/09/20 05:04:29;;;;;;;2.95;1.05;;;12.10;98.20;;;;;;5043270;28;20124;-69
2022/09/20 05:07:17;;;;;;;2.38;1.10;;;12.00;98.20;;;;;;5041643;28;20036;-69
2022/09/20 05:10:07;;;;;;;2.45;1.00;;;12.00;98.20;;;;;;5043061;28;20036;-69
2022/09/20 05:12:58;;;;;;;2.13;0.80;;;12.00;98.20;;;;;;5036722;28;20104;-69
2022/09/20 05:15:48;;;;;;;3.95;0.90;;;12.00;98.30;;;;;;5043432;28;20524;-69
2022/09/20 05:18:33;;;;;;;3.80;0.80;;;11.90;98.30;;;;;;5038024;28;20037;-69
2022/09/20 05:21:39;;;;;;;2.20;0.80;;;11.90;98.20;;;;;;5035206;28;20034;-69
2022/09/20 05:24:04;;;;;;;1.92;0.80;;;11.90;98.00;;;;;;5042775;28;20047;-69
2022/09/20 05:26:52;;;;;;;2.20;1.08;;;11.90;98.00;;;;;;5044529;28;20034;-69
2022/09/20 05:30:00;;;;;;;1.40;0.90;;;11.80;98.10;;;;;;5041614;28;20112;-69
2022/09/20 05:32:38;;;;;;;2.45;0.80;;;11.80;98.10;;;;;;5037161;28;20481;-69
2022/09/20 05:35:13;;;;;;;3.13;1.05;;;11.80;98.20;;;;;;5037480;28;20040;-69
2022/09/20 05:38:02;;;;;;;2.15;0.90;;;11.80;98.20;;;;;;5038992;28;20033;-69
2022/09/20 05:40:39;;;;;;;2.35;1.02;;;11.80;98.20;;;;;;5038175;28;20079;-69
2022/09/20 05:43:19;;;;;;;3.45;1.15;;;11.90;98.30;;;;;;5041314;28;20048;-69
2022/09/20 05:46:06;;;;;;;4.10;1.50;;;12.00;98.40;;;;;;5043607;28;20078;-69
2022/09/20 05:48:44;;;;;;;1.60;1.30;;;12.00;98.40;;;;;;5036790;28;20025;-68
2022/09/20 05:51:32;;;;;;;4.28;1.45;;;12.00;98.50;;;;;;5038860;28;20045;-69
2022/09/20 05:54:16;;;;;;;2.20;1.40;;;12.10;98.60;;;;;;5039206;28;20063;-69
2022/09/20 05:57:06;;;;;;;6.10;1.90;;;12.20;98.50;;;;;;5038042;28;20035;-69
2022/09/20 06:00:09;;;;;;;3.38;1.45;;;12.30;98.50;;;;;;5037202;28;20044;-68
2022/09/20 06:03:04;;;;;;;3.58;1.75;;;12.40;98.30;;;;;;5042085;28;20039;-69
2022/09/20 06:06:02;;;;;;;3.47;1.67;;;12.50;98.30;;;;;;5040424;28;20814;-70
2022/09/20 06:08:56;;;;;;;4.68;1.90;;;12.50;98.30;;;;;;5038934;28;20027;-69
2022/09/20 06:11:37;;;;;;;3.65;1.50;;;12.50;98.20;;;;;;5038770;28;20029;-69
2022/09/20 06:14:15;;;;;;;6.55;2.05;;;12.50;98.10;;;;;;5036131;28;20033;-70
2022/09/20 06:17:15;;;;;;;4.03;2.03;;;12.50;98.10;;;;;;5037049;28;20320;-69
2022/09/20 06:20:05;;;;;;;5.07;1.95;;;12.40;98.00;;;;;;5042515;28;20039;-69
2022/09/20 06:22:41;;;;;;;2.22;1.60;;;12.40;97.90;;;;;;5039954;28;20041;-69
2022/09/20 06:25:07;;;;;;;6.20;1.92;;;12.40;97.90;;;;;;5040499;28;20094;-69
2022/09/20 06:27:45;;;;;;;4.72;2.30;;;12.40;97.90;;;;;;5040909;28;20024;-69
2022/09/20 06:30:28;;;;;;;6.75;2.50;;;12.40;97.90;;;;;;5038215;28;20628;-69
2022/09/20 06:33:04;;;;;;;5.47;2.10;;;12.50;97.90;;;;;;5036359;28;20040;-69
2022/09/20 06:35:38;;;;;;;6.90;2.78;;;12.60;98.00;;;;;;5037599;28;20273;-69
2022/09/20 06:41:29;;;;;;;6.00;2.53;;;12.60;97.80;;;;;;5042097;28;20362;-69
2022/09/20 06:43:59;;;;;;;6.40;2.63;;;12.60;97.70;;;;;;5040595;28;20025;-69
2022/09/20 06:46:30;;;;;;;3.90;3.22;;;12.60;97.60;;;;;;5040199;28;20179;-69
2022/09/20 06:48:56;;;;;;;5.90;3.63;;;12.60;97.60;;;;;;5037450;28;20033;-69
2022/09/20 06:51:25;;;;;;;10.88;3.95;;;12.60;97.40;;;;;;5038287;28;20484;-69
2022/09/20 06:53:53;;;;;;;6.25;3.10;;;12.50;97.20;;;;;;5035405;28;20029;-70
2022/09/20 06:56:25;;;;;;;10.55;3.70;;;12.50;97.20;;;;;;5035793;28;20041;-69
2022/09/20 06:58:52;;;;;;;6.85;3.58;;;12.40;97.30;;;;;;5043465;28;20309;-69
2022/09/20 07:01:19;;;;;;;8.80;4.28;;;12.40;97.40;;;;;;5042833;28;20417;-69
2022/09/20 07:03:45;;;;;;;8.57;3.70;;;12.50;97.40;;;;;;5039462;28;20052;-70
2022/09/20 07:06:11;;;;;;;9.40;4.68;;;12.50;97.50;;;;;;5037881;28;20069;-69
2022/09/20 07:08:37;;;;;;;10.98;4.38;;;12.60;97.60;;;;;;5039568;28;20019;-69
2022/09/20 07:11:10;;;;;;;10.80;4.50;;;12.70;97.60;;;;;;5034857;28;20099;-70
2022/09/20 07:13:36;;;;;;;7.28;4.28;;;12.80;97.60;;;;;;5036215;28;20059;-70
2022/09/20 07:16:04;;;;;;;6.45;4.25;;;12.90;97.60;;;;;;5039305;28;20029;-70
2022/09/20 07:18:31;;;;;;;7.88;5.03;;;13.00;97.50;;;;;;5041840;28;20029;-70
2022/09/20 07:20:59;;;;;;;10.77;5.35;;;13.10;97.40;;;;;;5040338;28;20135;-70
2022/09/20 07:23:26;;;;;;;7.72;4.90;;;13.20;97.60;;;;;;5039479;28;20082;-70
2022/09/20 07:25:52;;;;;;;11.40;5.88;;;13.40;97.60;;;;;;5037495;28;20033;-71
2022/09/20 07:28:21;;;;;;;10.93;5.60;;;13.50;97.50;;;;;;5036127;28;20029;-69
2022/09/20 07:30:47;;;;;;;7.88;5.15;;;13.60;97.00;;;;;;5034930;28;20761;-70
2022/09/20 07:33:18;;;;;;;11.38;5.15;;;13.60;96.90;;;;;;5033354;28;20033;-70
2022/09/20 07:35:45;;;;;;;12.05;6.72;;;13.70;96.60;;;;;;5039847;28;20079;-70
2022/09/20 07:38:11;;;;;;;10.27;5.60;;;13.70;96.50;;;;;;5041418;28;20052;-69
2022/09/20 07:40:37;;;;;;;11.75;6.13;;;13.80;96.40;;;;;;5041183;28;20029;-69
2022/09/20 07:43:03;;;;;;;12.18;6.75;;;13.80;96.20;;;;;;5037753;28;20458;-69
2022/09/20 07:45:30;;;;;;;14.27;7.00;;;13.80;96.10;;;;;;5039407;28;20044;-70
2022/09/20 07:48:01;;;;;;;14.45;6.32;;;13.90;96.10;;;;;;5035857;28;20417;-70
2022/09/20 07:50:27;;;;;;;9.85;6.15;;;14.00;95.90;;;;;;5041988;28;20436;-69
2022/09/20 07:52:56;;;;;;;10.88;6.05;;;14.00;95.70;;;;;;5031092;28;20060;-70
2022/09/20 07:55:22;;;;;;;8.52;5.80;;;14.00;95.70;;;;;;5042329;28;20806;-69
2022/09/20 07:57:47;;;;;;;13.85;6.60;;;14.00;95.60;;;;;;5041701;28;20071;-70
2022/09/20 08:00:13;;;;;;;12.95;6.32;;;14.00;95.60;;;;;;5039142;28;20117;-70
2022/09/20 08:02:39;;;;;;;13.05;7.40;;;14.10;95.70;;;;;;5041920;28;20040;-70
2022/09/20 08:05:05;;;;;;;13.20;6.57;;;14.10;95.60;;;;;;5035996;28;20026;-69
2022/09/20 08:07:31;;;;;;;11.38;5.90;;;14.10;95.40;;;;;;5037352;28;20485;-70
2022/09/20 08:09:57;;;;;;;10.32;5.85;;;14.20;95.30;;;;;;5029205;28;20037;-70
2022/09/20 08:12:23;;;;;;;14.52;5.97;;;14.30;95.20;;;;;;5034323;28;20118;-70
2022/09/20 08:14:49;;;;;;;11.73;5.78;;;14.40;95.10;;;;;;5042123;28;20216;-70
2022/09/20 08:17:15;;;;;;;12.93;5.80;;;14.40;95.00;;;;;;5040920;28;20587;-70
2022/09/20 08:19:41;;;;;;;15.00;5.63;;;14.40;95.10;;;;;;5039827;28;20029;-70
2022/09/20 08:22:09;;;;;;;16.45;5.55;;;14.50;94.60;;;;;;5036306;28;20117;-69
2022/09/20 08:24:35;;;;;;;8.40;5.00;;;14.50;94.60;;;;;;5037654;28;20039;-69
2022/09/20 08:27:01;;;;;;;9.88;5.28;;;14.50;94.70;;;;;;5033258;28;20123;-70
2022/09/20 08:29:27;;;;;;;10.18;5.28;;;14.50;94.50;;;;;;5035069;28;20547;-70
2022/09/20 08:31:56;;;;;;;9.52;5.35;;;14.60;94.40;;;;;;5038104;28;20036;-69
2022/09/20 08:34:23;;;;;;;9.05;4.35;;;14.60;94.40;;;;;;5040801;28;20839;-69
2022/09/20 08:36:51;;;;;;;11.80;5.70;;;14.60;94.20;;;;;;5037847;28;20040;-69
2022/09/20 08:39:18;;;;;;;8.63;4.80;;;14.70;94.10;;;;;;5037726;28;20037;-69
2022/09/20 08:42:07;;;;;;;7.40;5.20;;;14.60;94.00;;;;;;5037658;28;20029;-70
2022/09/20 08:44:42;;;;;;;9.48;5.18;;;14.70;94.10;;;;;;5036804;28;20020;-70
2022/09/20 08:47:21;;;;;;;4.85;4.13;;;14.60;94.00;;;;;;5033024;28;20029;-70
2022/09/20 08:49:49;;;;;;;7.40;4.90;;;14.60;94.30;;;;;;5034735;28;20060;-70
2022/09/20 08:52:19;;;;;;;9.65;4.70;;;14.60;94.20;;;;;;5040896;28;20429;-70
2022/09/20 08:54:45;;;;;;;9.23;4.60;;;14.60;94.20;;;;;;5041068;28;20362;-70
2022/09/20 08:57:15;;;;;;;8.57;3.78;;;14.70;94.30;;;;;;5037893;28;20053;-70
2022/09/20 08:59:41;;;;;;;7.88;4.35;;;14.70;94.30;;;;;;5038358;28;20041;-70
2022/09/20 09:02:19;;;;;;;8.07;4.40;;;14.70;94.20;;;;;;5034644;28;20037;-69
2022/09/20 09:04:45;;;;;;;7.85;3.90;;;14.80;94.00;;;;;;5034859;28;20039;-69
2022/09/20 09:07:13;;;;;;;7.78;4.20;;;14.80;93.80;;;;;;5032631;28;20037;-69
2022/09/20 09:09:42;;;;;;;8.20;4.25;;;14.80;93.90;;;;;;5037753;28;20033;-69
2022/09/20 09:12:27;;;;;;;8.02;4.65;;;14.90;93.80;;;;;;5037885;28;20041;-69
2022/09/20 09:14:59;;;;;;;9.07;4.65;;;14.90;93.60;;;;;;5037485;28;20040;-69
2022/09/20 09:17:27;;;;;;;10.82;4.25;;;15.00;93.50;;;;;;5036095;28;20040;-70
2022/09/20 09:20:17;;;;;;;5.35;3.97;;;15.10;93.60;;;;;;5035770;28;20150;-69
2022/09/20 09:22:44;;;;;;;8.27;3.97;;;15.10;93.40;;;;;;5032036;28;20029;-70
2022/09/20 09:25:13;;;;;;;5.65;3.50;;;15.20;93.30;;;;;;5032493;28;20037;-69
2022/09/20 09:27:57;;;;;;;6.20;4.00;;;15.20;93.10;;;;;;5033792;28;20029;-70
2022/09/20 09:30:23;;;;;;;8.35;4.13;;;15.30;93.10;;;;;;5041028;28;20033;-70
2022/09/20 09:32:49;;;;;;;7.82;4.40;;;15.40;93.10;;;;;;5039771;28;20037;-70
2022/09/20 09:35:26;;;;;;;5.93;4.25;;;15.50;93.30;;;;;;5037324;28;20124;-70
2022/09/20 09:38:01;;;;;;;10.15;4.50;;;15.80;93.20;;;;;;5035790;28;20032;-70
2022/09/20 09:40:30;;;;;;;12.18;6.15;;;15.90;92.60;;;;;;5034537;28;20029;-70
2022/09/20 09:42:59;;;;;;;9.82;5.50;;;16.00;91.50;;;;;;5031927;28;20032;-70
2022/09/20 09:45:33;;;;;;;5.75;4.32;;;16.00;91.20;;;;;;5033692;28;20029;-70
2022/09/20 09:48:21;;;;;;;8.57;4.85;;;16.00;91.40;;;;;;5038577;28;20036;-70
2022/09/20 09:50:47;;;;;;;11.07;4.68;;;16.00;91.60;;;;;;5042888;28;20425;-69
2022/09/20 09:53:17;;;;;;;10.82;4.35;;;16.00;91.50;;;;;;5040679;28;20128;-69
2022/09/20 09:55:59;;;;;;;6.35;3.63;;;15.90;91.10;;;;;;5039440;28;20037;-69
2022/09/20 09:58:28;;;;;;;10.32;4.63;;;15.80;91.20;;;;;;5039653;28;20578;-69
2022/09/20 10:00:55;;;;;;;7.38;4.25;;;15.70;91.20;;;;;;5036627;28;20457;-69
2022/09/20 10:03:42;;;;;;;8.20;4.10;;;15.60;91.40;;;;;;5037086;28;20063;-70
2022/09/20 10:06:25;;;;;;;9.70;4.82;;;15.60;91.60;;;;;;5035983;28;20610;-69
2022/09/20 10:08:51;;;;;;;7.97;4.80;;;15.50;91.90;;;;;;5044119;28;20108;-69
2022/09/20 10:11:29;;;;;;;7.88;4.95;;;15.50;92.00;;;;;;5040922;28;20088;-69
2022/09/20 10:14:12;;;;;;;6.50;4.05;;;15.40;92.10;;;;;;5038868;28;20052;-70
2022/09/20 10:16:42;;;;;;;11.05;6.15;;;15.50;92.50;;;;;;5042286;28;20029;-69
2022/09/20 10:19:42;;;;;;;11.05;4.80;;;15.60;92.50;;;;;;5036450;28;20166;-69
2022/09/20 10:22:17;;;;;;;9.48;5.75;;;15.70;92.70;;;;;;5031893;28;20049;-69
2022/09/20 10:24:59;;;;;;;6.80;4.85;;;15.80;91.70;;;;;;5037323;28;20029;-69
2022/09/20 10:27:56;;;;;;;9.20;4.60;;;15.80;91.70;;;;;;5043125;28;20033;-70
2022/09/20 10:30:30;;;;;;;10.80;4.90;;;15.90;92.00;;;;;;5039662;28;20119;-69
2022/09/20 10:33:23;;;;;;;11.98;4.75;;;16.00;91.50;;;;;;5038578;28;20657;-69
2022/09/20 10:36:10;;;;;;;7.18;4.00;;;16.00;90.90;;;;;;5037720;28;20036;-69
2022/09/20 10:38:54;;;;;;;7.47;4.38;;;16.00;91.00;;;;;;5037249;28;20036;-71
2022/09/20 10:45:01;;;;;;;6.88;3.83;;;16.10;91.80;;;;;;5041611;28;20131;-71
2022/09/20 10:47:49;;;;;;;4.07;2.83;;;16.10;91.20;;;;;;5039743;28;20025;-71
2022/09/20 10:50:47;;;;;;;4.88;3.35;;;16.20;91.10;;;;;;5039409;28;20037;-71
2022/09/20 10:53:42;;;;;;;5.30;2.90;;;16.20;90.60;;;;;;5037398;28;20159;-70
2022/09/20 10:56:08;;;;;;;5.25;3.17;;;16.10;90.50;;;;;;5035875;28;20144;-70
2022/09/20 10:59:05;;;;;;;4.32;3.15;;;16.10;90.70;;;;;;5038029;28;20116;-71
2022/09/20 11:01:42;;;;;;;6.28;3.17;;;16.10;90.80;;;;;;5031498;28;20032;-71
2022/09/20 11:04:25;;;;;;;4.10;2.95;;;16.10;90.30;;;;;;5042502;28;20048;-71
2022/09/20 11:07:12;;;;;;;7.75;3.15;;;16.10;90.90;;;;;;5039431;28;20108;-71
2022/09/20 11:09:43;;;;;;;4.88;3.10;;;16.20;91.30;;;;;;5037424;28;20040;-70
2022/09/20 11:12:17;;;;;;;5.78;3.25;;;16.40;91.20;;;;;;5037222;28;20045;-72
2022/09/20 11:14:56;;;;;;;6.07;3.13;;;16.50;90.90;;;;;;5038440;28;20520;-71
2022/09/20 11:17:25;;;;;;;6.32;2.85;;;16.60;89.60;;;;;;5037703;28;20036;-71
2022/09/20 11:19:56;;;;;;;4.75;2.90;;;16.70;90.60;;;;;;5033778;28;20029;-71
2022/09/20 11:22:30;;;;;;;5.20;2.65;;;16.70;89.90;;;;;;5041479;28;20062;-71
2022/09/20 11:25:17;;;;;;;5.00;2.55;;;16.60;89.60;;;;;;5038405;28;20104;-71
2022/09/20 11:28:02;;;;;;;4.15;2.25;;;16.60;88.70;;;;;;5037291;28;20048;-70
2022/09/20 11:30:30;;;;;;;5.07;3.00;;;16.50;90.00;;;;;;5033141;28;20021;-71
2022/09/20 11:33:02;;;;;;;5.03;2.38;;;16.40;90.10;;;;;;5035728;28;20788;-71
2022/09/20 11:35:50;;;;;;;5.22;2.42;;;16.20;89.70;;;;;;5036130;28;20040;-70
2022/09/20 11:38:27;;;;;;;5.53;2.53;;;16.20;90.20;;;;;;5034495;28;20036;-70
2022/09/20 11:41:14;;;;;;;6.95;2.88;;;16.20;91.10;;;;;;5039441;28;20043;-70
2022/09/20 11:43:43;;;;;;;4.15;2.50;;;16.20;90.70;;;;;;5036699;28;20029;-70
2022/09/20 11:46:19;;;;;;;4.00;2.90;;;16.20;90.50;;;;;;5039785;28;20051;-71
2022/09/20 11:49:00;;;;;;;4.05;2.60;;;16.10;90.50;;;;;;5041996;28;20048;-71
2022/09/20 11:51:54;;;;;;;5.28;2.50;;;16.10;90.60;;;;;;5036751;28;20029;-71
2022/09/20 11:54:41;;;;;;;8.38;2.53;;;16.10;90.50;;;;;;5036743;28;20768;-71
2022/09/20 11:57:14;;;;;;;7.47;2.65;;;16.10;89.40;;;;;;5033731;28;20034;-69
2022/09/20 11:59:42;;;;;;;3.30;2.13;;;16.10;89.80;;;;;;5039225;28;20029;-70
2022/09/20 12:02:32;;;;;;;3.50;2.20;;;16.10;90.20;;;;;;5040837;28;20036;-70
2022/09/20 12:05:00;;;;;;;3.65;2.25;;;16.20;90.40;;;;;;5038928;28;20527;-71
2022/09/20 12:07:36;;;;;;;2.63;2.00;;;16.20;90.30;;;;;;5037285;28;20650;-71
2022/09/20 12:10:20;;;;;;;4.22;1.83;;;16.20;89.50;;;;;;5036151;28;20073;-71
2022/09/20 12:12:49;;;;;;;4.55;1.83;;;16.30;89.80;;;;;;5035499;28;20037;-71
2022/09/20 12:15:40;;;;;;;4.38;2.00;;;16.50;88.40;;;;;;5038218;28;20703;-71
2022/09/20 12:18:32;;;;;;;3.13;1.80;;;16.70;89.00;;;;;;5036465;28;20040;-71
2022/09/20 12:21:10;;;;;;;4.03;1.75;;;16.70;87.70;;;;;;5037174;28;20041;-71
2022/09/20 12:23:41;;;;;;;2.28;1.45;;;16.80;87.80;;;;;;5038311;28;20029;-71
2022/09/20 12:26:19;;;;;;;3.38;1.33;;;16.80;88.20;;;;;;5037304;28;20083;-70
2022/09/20 12:28:49;;;;;;;2.75;1.35;;;16.80;88.20;;;;;;5036651;28;20055;-70
2022/09/20 12:31:21;;;;;;;2.65;1.30;;;16.90;87.80;;;;;;5034692;28;20041;-71
2022/09/20 12:34:13;;;;;;;2.20;1.50;;;16.90;86.10;;;;;;5035714;28;20382;-69
2022/09/20 12:36:42;;;;;;;2.15;1.55;;;17.00;87.00;;;;;;5038453;28;20439;-72
2022/09/20 12:39:09;;;;;;;2.55;1.65;;;17.00;87.00;;;;;;5040859;28;20064;-71
2022/09/20 12:41:53;;;;;;;2.60;1.52;;;17.10;86.80;;;;;;5040080;28;20134;-70
2022/09/20 12:44:34;;;;;;;3.17;1.60;;;17.20;87.20;;;;;;5038250;28;20037;-70
2022/09/20 12:47:07;;;;;;;1.80;1.45;;;17.30;86.80;;;;;;5035875;28;20544;-71
2022/09/20 12:52:56;;;;;;;3.05;1.38;;;17.40;85.30;;;;;;5034467;28;20029;-70
2022/09/20 12:55:30;;;;;;;2.92;1.23;;;17.50;85.10;;;;;;5038314;28;20143;-71
2022/09/20 12:58:00;;;;;;;3.03;1.65;;;17.40;82.50;;;;;;5037966;28;20047;-70
2022/09/20 13:00:43;;;;;;;3.33;1.42;;;17.50;82.10;;;;;;5037177;28;20025;-71
2022/09/20 13:03:37;;;;;;;2.55;1.48;;;17.40;82.80;;;;;;5037229;28;20034;-70
2022/09/20 13:06:05;;;;;;;1.42;1.20;;;17.40;83.50;;;;;;5036010;28;20037;-69
2022/09/20 13:08:46;;;;;;;2.03;0.95;;;17.40;83.70;;;;;;5036127;28;20493;-70
2022/09/20 13:11:21;;;;;;;2.47;0.65;;;17.40;80.00;;;;;;5032875;28;20049;-71
2022/09/20 13:14:00;;;;;;;2.13;0.50;;;17.10;78.80;;;;;;5033662;28;20733;-70
2022/09/20 13:16:38;;;;;;;0.98;0.43;;;16.70;79.10;;;;;;5036655;28;20033;-70
2022/09/20 13:19:13;;;;;;;2.60;0.57;;;16.20;83.10;;;;;;5040151;28;20036;-71
2022/09/20 13:21:44;;;;;;;1.38;0.40;;;15.80;86.10;;;;;;5038525;28;20032;-70
2022/09/20 13:24:16;;;;;;;1.10;0.20;;;15.50;87.00;;;;;;5038414;28;20041;-70
2022/09/20 13:26:46;;;;;;;0.35;0.22;;;15.20;88.40;;;;;;5039634;28;20465;-70
2022/09/20 13:29:38;;;;;;;2.60;0.65;;;15.00;89.40;;;;;;5037474;28;20036;-70
2022/09/20 13:32:40;;;;;;;3.65;0.55;;;14.80;90.70;;;;;;5035087;28;20132;-70
2022/09/20 13:35:08;;;;;;;1.73;0.70;;;14.60;91.20;;;;;;5043644;28;20060;-70
2022/09/20 13:37:37;;;;;;;1.63;0.60;;;14.50;91.70;;;;;;5044024;28;20428;-70
2022/09/20 13:40:04;;;;;;;1.38;0.28;;;14.30;92.10;;;;;;5041029;28;20045;-69
2022/09/20 13:42:34;;;;;;;2.72;0.47;;;14.20;92.40;;;;;;5040849;28;20067;-71
2022/09/20 13:45:02;;;;;;;2.88;0.40;;;14.10;92.70;;;;;;5037764;28;20034;-70
2022/09/20 13:47:31;;;;;;;0.35;0.20;;;14.00;93.00;;;;;;5038689;28;20044;-70
2022/09/20 13:50:27;;;;;;;0.30;0.20;;;14.00;93.10;;;;;;5034843;28;20025;-70